sensor_id;sensor_type;location;lat;lon;timestamp;P1;durP1;ratioP1;P2;durP2;ratioP2
30998;SDS011;20549;50.042;8.968;2023-03-01T00:01:41;7.03;;;6.13;;
30998;SDS011;20549;50.042;8.968;2023-03-01T00:04:07;7.63;;;6.57;;
30998;SDS011;20549;50.042;8.968;2023-03-01T00:06:34;8.07;;;5.90;;
30998;SDS011;20549;50.042;8.968;2023-03-01T00:09:01;8.20;;;6.33;;
30998;SDS011;20549;50.042;8.968;2023-03-01T00:11:28;6.20;;;5.60;;
30998;SDS011;20549;50.042;8.968;2023-03-01T00:13:55;7.03;;;6.23;;
30998;SDS011;20549;50.042;8.968;2023-03-01T00:16:24;7.17;;;5.97;;
30998;SDS011;20549;50.042;8.968;2023-03-01T00:18:47;7.20;;;6.50;;
30998;SDS011;20549;50.042;8.968;2023-03-01T00:21:14;8.30;;;5.77;;
30998;SDS011;20549;50.042;8.968;2023-03-01T00:23:40;6.93;;;5.70;;
30998;SDS011;20549;50.042;8.968;2023-03-01T00:26:08;6.53;;;5.50;;
30998;SDS011;20549;50.042;8.968;2023-03-01T00:28:33;6.33;;;5.60;;
30998;SDS011;20549;50.042;8.968;2023-03-01T00:31:04;7.53;;;5.93;;
30998;SDS011;20549;50.042;8.968;2023-03-01T00:33:29;9.43;;;6.43;;
30998;SDS011;20549;50.042;8.968;2023-03-01T00:35:57;7.67;;;6.27;;
30998;SDS011;20549;50.042;8.968;2023-03-01T00:38:23;8.50;;;6.37;;
30998;SDS011;20549;50.042;8.968;2023-03-01T00:40:49;9.90;;;7.00;;
30998;SDS011;20549;50.042;8.968;2023-03-01T00:43:16;8.17;;;6.87;;
30998;SDS011;20549;50.042;8.968;2023-03-01T00:45:42;8.00;;;6.23;;
30998;SDS011;20549;50.042;8.968;2023-03-01T00:48:09;7.27;;;5.93;;
30998;SDS011;20549;50.042;8.968;2023-03-01T00:50:35;7.87;;;6.47;;
30998;SDS011;20549;50.042;8.968;2023-03-01T00:53:02;6.27;;;5.60;;
30998;SDS011;20549;50.042;8.968;2023-03-01T00:55:29;6.50;;;5.83;;
30998;SDS011;20549;50.042;8.968;2023-03-01T00:57:55;7.27;;;6.40;;
30998;SDS011;20549;50.042;8.968;2023-03-01T01:00:22;6.67;;;6.00;;
30998;SDS011;20549;50.042;8.968;2023-03-01T01:02:48;7.17;;;5.90;;
30998;SDS011;20549;50.042;8.968;2023-03-01T01:05:15;7.10;;;5.77;;
30998;SDS011;20549;50.042;8.968;2023-03-01T01:07:42;6.83;;;6.10;;
30998;SDS011;20549;50.042;8.968;2023-03-01T01:10:08;7.63;;;6.03;;
30998;SDS011;20549;50.042;8.968;2023-03-01T01:12:35;6.97;;;5.70;;
30998;SDS011;20549;50.042;8.968;2023-03-01T01:15:01;8.03;;;6.37;;
30998;SDS011;20549;50.042;8.968;2023-03-01T01:17:28;7.60;;;6.53;;
30998;SDS011;20549;50.042;8.968;2023-03-01T01:19:55;6.80;;;6.07;;
30998;SDS011;20549;50.042;8.968;2023-03-01T01:22:21;6.20;;;5.57;;
30998;SDS011;20549;50.042;8.968;2023-03-01T01:24:48;6.50;;;5.73;;
30998;SDS011;20549;50.042;8.968;2023-03-01T01:27:14;6.00;;;5.40;;
30998;SDS011;20549;50.042;8.968;2023-03-01T01:29:41;8.13;;;5.97;;
30998;SDS011;20549;50.042;8.968;2023-03-01T01:32:08;6.83;;;6.00;;
30998;SDS011;20549;50.042;8.968;2023-03-01T01:34:34;7.17;;;6.20;;
30998;SDS011;20549;50.042;8.968;2023-03-01T01:37:01;6.77;;;5.97;;
30998;SDS011;20549;50.042;8.968;2023-03-01T01:39:28;8.33;;;5.73;;
30998;SDS011;20549;50.042;8.968;2023-03-01T01:41:54;8.47;;;6.27;;
30998;SDS011;20549;50.042;8.968;2023-03-01T01:44:21;7.50;;;6.40;;
30998;SDS011;20549;50.042;8.968;2023-03-01T01:46:49;7.13;;;6.07;;
30998;SDS011;20549;50.042;8.968;2023-03-01T01:52:06;6.10;;;5.50;;
30998;SDS011;20549;50.042;8.968;2023-03-01T01:57:03;6.30;;;5.70;;
30998;SDS011;20549;50.042;8.968;2023-03-01T01:59:30;7.70;;;5.93;;
30998;SDS011;20549;50.042;8.968;2023-03-01T02:01:56;7.80;;;6.87;;
30998;SDS011;20549;50.042;8.968;2023-03-01T02:04:23;7.13;;;6.43;;
30998;SDS011;20549;50.042;8.968;2023-03-01T02:06:51;9.77;;;6.27;;
30998;SDS011;20549;50.042;8.968;2023-03-01T02:09:16;7.53;;;6.73;;
30998;SDS011;20549;50.042;8.968;2023-03-01T02:11:43;9.07;;;6.90;;
30998;SDS011;20549;50.042;8.968;2023-03-01T02:14:09;10.47;;;6.50;;
30998;SDS011;20549;50.042;8.968;2023-03-01T02:16:36;7.07;;;5.67;;
30998;SDS011;20549;50.042;8.968;2023-03-01T02:19:03;7.17;;;6.47;;
30998;SDS011;20549;50.042;8.968;2023-03-01T02:21:37;9.93;;;6.87;;
30998;SDS011;20549;50.042;8.968;2023-03-01T02:24:10;7.07;;;6.37;;
30998;SDS011;20549;50.042;8.968;2023-03-01T02:29:00;8.30;;;6.80;;
30998;SDS011;20549;50.042;8.968;2023-03-01T02:31:26;7.77;;;6.63;;
30998;SDS011;20549;50.042;8.968;2023-03-01T02:34:14;8.97;;;6.43;;
30998;SDS011;20549;50.042;8.968;2023-03-01T02:36:38;10.73;;;6.87;;
30998;SDS011;20549;50.042;8.968;2023-03-01T02:39:05;8.30;;;6.03;;
30998;SDS011;20549;50.042;8.968;2023-03-01T02:41:31;7.20;;;5.87;;
30998;SDS011;20549;50.042;8.968;2023-03-01T02:43:57;7.80;;;7.00;;
30998;SDS011;20549;50.042;8.968;2023-03-01T02:46:24;7.83;;;6.63;;
30998;SDS011;20549;50.042;8.968;2023-03-01T02:48:52;7.80;;;6.17;;
30998;SDS011;20549;50.042;8.968;2023-03-01T02:54:06;8.70;;;6.73;;
30998;SDS011;20549;50.042;8.968;2023-03-01T02:56:37;7.40;;;6.20;;
30998;SDS011;20549;50.042;8.968;2023-03-01T02:59:04;7.70;;;6.63;;
30998;SDS011;20549;50.042;8.968;2023-03-01T03:01:30;7.40;;;5.80;;
30998;SDS011;20549;50.042;8.968;2023-03-01T03:04:04;7.73;;;6.13;;
30998;SDS011;20549;50.042;8.968;2023-03-01T03:06:29;10.27;;;7.43;;
30998;SDS011;20549;50.042;8.968;2023-03-01T03:08:56;8.17;;;6.93;;
30998;SDS011;20549;50.042;8.968;2023-03-01T03:11:22;9.30;;;7.60;;
30998;SDS011;20549;50.042;8.968;2023-03-01T03:13:49;8.97;;;7.67;;
30998;SDS011;20549;50.042;8.968;2023-03-01T03:16:16;8.90;;;6.97;;
30998;SDS011;20549;50.042;8.968;2023-03-01T03:18:42;7.47;;;6.33;;
30998;SDS011;20549;50.042;8.968;2023-03-01T03:21:10;8.50;;;6.57;;
30998;SDS011;20549;50.042;8.968;2023-03-01T03:23:38;9.07;;;7.30;;
30998;SDS011;20549;50.042;8.968;2023-03-01T03:26:05;9.80;;;7.50;;
30998;SDS011;20549;50.042;8.968;2023-03-01T03:28:32;10.27;;;7.60;;
30998;SDS011;20549;50.042;8.968;2023-03-01T03:30:58;9.93;;;7.00;;
30998;SDS011;20549;50.042;8.968;2023-03-01T03:33:24;9.77;;;7.50;;
30998;SDS011;20549;50.042;8.968;2023-03-01T03:35:51;7.50;;;6.80;;
30998;SDS011;20549;50.042;8.968;2023-03-01T03:38:18;8.23;;;7.30;;
30998;SDS011;20549;50.042;8.968;2023-03-01T03:40:45;9.03;;;8.07;;
30998;SDS011;20549;50.042;8.968;2023-03-01T03:43:14;9.77;;;7.93;;
30998;SDS011;20549;50.042;8.968;2023-03-01T03:45:44;9.73;;;7.33;;
30998;SDS011;20549;50.042;8.968;2023-03-01T03:48:10;10.03;;;7.33;;
30998;SDS011;20549;50.042;8.968;2023-03-01T03:50:39;7.67;;;6.87;;
30998;SDS011;20549;50.042;8.968;2023-03-01T03:53:07;8.37;;;7.23;;
30998;SDS011;20549;50.042;8.968;2023-03-01T03:55:32;8.20;;;7.30;;
30998;SDS011;20549;50.042;8.968;2023-03-01T03:57:59;8.23;;;7.30;;
30998;SDS011;20549;50.042;8.968;2023-03-01T04:00:25;7.93;;;6.47;;
30998;SDS011;20549;50.042;8.968;2023-03-01T04:02:52;9.23;;;7.80;;
30998;SDS011;20549;50.042;8.968;2023-03-01T04:05:18;8.53;;;7.00;;
30998;SDS011;20549;50.042;8.968;2023-03-01T04:07:45;9.60;;;7.20;;
30998;SDS011;20549;50.042;8.968;2023-03-01T04:10:13;8.93;;;7.40;;
30998;SDS011;20549;50.042;8.968;2023-03-01T04:12:41;8.80;;;7.27;;
30998;SDS011;20549;50.042;8.968;2023-03-01T04:15:07;8.40;;;7.30;;
30998;SDS011;20549;50.042;8.968;2023-03-01T04:17:40;7.77;;;6.97;;
30998;SDS011;20549;50.042;8.968;2023-03-01T04:20:08;8.00;;;6.63;;
30998;SDS011;20549;50.042;8.968;2023-03-01T04:22:39;7.67;;;6.67;;
30998;SDS011;20549;50.042;8.968;2023-03-01T04:25:06;10.00;;;7.13;;
30998;SDS011;20549;50.042;8.968;2023-03-01T04:27:33;9.67;;;7.70;;
30998;SDS011;20549;50.042;8.968;2023-03-01T04:29:59;9.47;;;7.43;;
30998;SDS011;20549;50.042;8.968;2023-03-01T04:32:25;10.87;;;8.07;;
30998;SDS011;20549;50.042;8.968;2023-03-01T04:34:52;11.97;;;7.97;;
30998;SDS011;20549;50.042;8.968;2023-03-01T04:37:18;9.57;;;7.60;;
30998;SDS011;20549;50.042;8.968;2023-03-01T04:39:45;9.10;;;7.60;;
30998;SDS011;20549;50.042;8.968;2023-03-01T04:42:12;11.10;;;7.90;;
30998;SDS011;20549;50.042;8.968;2023-03-01T04:44:38;9.93;;;8.43;;
30998;SDS011;20549;50.042;8.968;2023-03-01T04:47:05;10.20;;;7.60;;
30998;SDS011;20549;50.042;8.968;2023-03-01T04:49:31;8.87;;;7.57;;
30998;SDS011;20549;50.042;8.968;2023-03-01T04:51:58;11.00;;;7.97;;
30998;SDS011;20549;50.042;8.968;2023-03-01T04:54:25;9.40;;;8.33;;
30998;SDS011;20549;50.042;8.968;2023-03-01T04:56:51;10.90;;;8.77;;
30998;SDS011;20549;50.042;8.968;2023-03-01T04:59:18;7.57;;;6.87;;
30998;SDS011;20549;50.042;8.968;2023-03-01T05:01:44;8.37;;;7.07;;
30998;SDS011;20549;50.042;8.968;2023-03-01T05:04:11;10.07;;;8.07;;
30998;SDS011;20549;50.042;8.968;2023-03-01T05:06:37;9.90;;;7.50;;
30998;SDS011;20549;50.042;8.968;2023-03-01T05:09:04;11.43;;;7.67;;
30998;SDS011;20549;50.042;8.968;2023-03-01T05:11:31;9.63;;;7.77;;
30998;SDS011;20549;50.042;8.968;2023-03-01T05:13:57;8.33;;;7.27;;
30998;SDS011;20549;50.042;8.968;2023-03-01T05:16:24;8.63;;;7.67;;
30998;SDS011;20549;50.042;8.968;2023-03-01T05:18:50;10.17;;;8.00;;
30998;SDS011;20549;50.042;8.968;2023-03-01T05:21:17;9.67;;;8.10;;
30998;SDS011;20549;50.042;8.968;2023-03-01T05:23:44;9.37;;;7.77;;
30998;SDS011;20549;50.042;8.968;2023-03-01T05:26:10;9.77;;;7.80;;
30998;SDS011;20549;50.042;8.968;2023-03-01T05:28:37;10.27;;;8.53;;
30998;SDS011;20549;50.042;8.968;2023-03-01T05:31:03;11.70;;;8.90;;
30998;SDS011;20549;50.042;8.968;2023-03-01T05:33:30;10.00;;;8.67;;
30998;SDS011;20549;50.042;8.968;2023-03-01T05:35:59;11.37;;;9.00;;
30998;SDS011;20549;50.042;8.968;2023-03-01T05:38:23;9.53;;;8.27;;
30998;SDS011;20549;50.042;8.968;2023-03-01T05:40:50;10.50;;;7.93;;
30998;SDS011;20549;50.042;8.968;2023-03-01T05:43:16;9.27;;;7.67;;
30998;SDS011;20549;50.042;8.968;2023-03-01T05:45:43;11.20;;;7.90;;
30998;SDS011;20549;50.042;8.968;2023-03-01T05:48:10;9.20;;;8.13;;
30998;SDS011;20549;50.042;8.968;2023-03-01T05:50:38;12.63;;;9.20;;
30998;SDS011;20549;50.042;8.968;2023-03-01T05:53:03;11.50;;;9.00;;
30998;SDS011;20549;50.042;8.968;2023-03-01T05:55:29;10.23;;;8.20;;
30998;SDS011;20549;50.042;8.968;2023-03-01T05:57:59;12.00;;;8.33;;
30998;SDS011;20549;50.042;8.968;2023-03-01T06:00:25;11.73;;;8.63;;
30998;SDS011;20549;50.042;8.968;2023-03-01T06:02:53;10.00;;;7.63;;
30998;SDS011;20549;50.042;8.968;2023-03-01T06:05:18;9.40;;;8.13;;
30998;SDS011;20549;50.042;8.968;2023-03-01T06:07:45;9.93;;;8.37;;
30998;SDS011;20549;50.042;8.968;2023-03-01T06:10:12;13.37;;;8.33;;
30998;SDS011;20549;50.042;8.968;2023-03-01T06:12:38;9.37;;;7.97;;
30998;SDS011;20549;50.042;8.968;2023-03-01T06:15:05;9.90;;;8.20;;
30998;SDS011;20549;50.042;8.968;2023-03-01T06:17:32;9.50;;;8.07;;
30998;SDS011;20549;50.042;8.968;2023-03-01T06:19:58;10.33;;;8.67;;
30998;SDS011;20549;50.042;8.968;2023-03-01T06:22:24;9.63;;;7.97;;
30998;SDS011;20549;50.042;8.968;2023-03-01T06:24:51;11.83;;;9.50;;
30998;SDS011;20549;50.042;8.968;2023-03-01T06:27:17;10.00;;;8.70;;
30998;SDS011;20549;50.042;8.968;2023-03-01T06:29:44;9.73;;;7.83;;
30998;SDS011;20549;50.042;8.968;2023-03-01T06:32:11;9.17;;;8.23;;
30998;SDS011;20549;50.042;8.968;2023-03-01T06:34:37;10.03;;;8.10;;
30998;SDS011;20549;50.042;8.968;2023-03-01T06:37:04;9.03;;;7.93;;
30998;SDS011;20549;50.042;8.968;2023-03-01T06:39:31;10.77;;;7.90;;
30998;SDS011;20549;50.042;8.968;2023-03-01T06:41:57;10.53;;;8.47;;
30998;SDS011;20549;50.042;8.968;2023-03-01T06:44:24;9.70;;;8.70;;
30998;SDS011;20549;50.042;8.968;2023-03-01T06:46:50;10.17;;;8.60;;
30998;SDS011;20549;50.042;8.968;2023-03-01T06:49:17;9.47;;;8.30;;
30998;SDS011;20549;50.042;8.968;2023-03-01T06:51:43;11.90;;;8.63;;
30998;SDS011;20549;50.042;8.968;2023-03-01T06:54:10;10.23;;;8.27;;
30998;SDS011;20549;50.042;8.968;2023-03-01T06:56:36;11.57;;;9.17;;
30998;SDS011;20549;50.042;8.968;2023-03-01T06:59:03;10.90;;;8.90;;
30998;SDS011;20549;50.042;8.968;2023-03-01T07:01:30;9.67;;;8.67;;
30998;SDS011;20549;50.042;8.968;2023-03-01T07:03:56;11.03;;;9.23;;
30998;SDS011;20549;50.042;8.968;2023-03-01T07:06:23;11.47;;;8.30;;
30998;SDS011;20549;50.042;8.968;2023-03-01T07:08:49;9.70;;;8.70;;
30998;SDS011;20549;50.042;8.968;2023-03-01T07:11:16;10.47;;;8.20;;
30998;SDS011;20549;50.042;8.968;2023-03-01T07:13:43;9.77;;;8.27;;
30998;SDS011;20549;50.042;8.968;2023-03-01T07:16:09;9.97;;;8.13;;
30998;SDS011;20549;50.042;8.968;2023-03-01T07:18:36;9.97;;;8.77;;
30998;SDS011;20549;50.042;8.968;2023-03-01T07:21:11;11.43;;;9.03;;
30998;SDS011;20549;50.042;8.968;2023-03-01T07:23:32;9.40;;;8.27;;
30998;SDS011;20549;50.042;8.968;2023-03-01T07:25:59;9.77;;;8.77;;
30998;SDS011;20549;50.042;8.968;2023-03-01T07:28:25;11.37;;;10.17;;
30998;SDS011;20549;50.042;8.968;2023-03-01T07:30:52;10.97;;;9.80;;
30998;SDS011;20549;50.042;8.968;2023-03-01T07:33:18;11.70;;;9.83;;
30998;SDS011;20549;50.042;8.968;2023-03-01T07:35:45;10.27;;;9.17;;
30998;SDS011;20549;50.042;8.968;2023-03-01T07:38:11;11.20;;;9.27;;
30998;SDS011;20549;50.042;8.968;2023-03-01T07:40:38;11.60;;;9.37;;
30998;SDS011;20549;50.042;8.968;2023-03-01T07:43:05;9.97;;;8.97;;
30998;SDS011;20549;50.042;8.968;2023-03-01T07:45:31;9.47;;;8.50;;
30998;SDS011;20549;50.042;8.968;2023-03-01T07:47:58;9.43;;;8.53;;
30998;SDS011;20549;50.042;8.968;2023-03-01T07:50:24;8.77;;;7.87;;
30998;SDS011;20549;50.042;8.968;2023-03-01T07:52:51;10.20;;;9.07;;
30998;SDS011;20549;50.042;8.968;2023-03-01T07:55:18;8.97;;;8.03;;
30998;SDS011;20549;50.042;8.968;2023-03-01T07:57:44;8.70;;;7.80;;
30998;SDS011;20549;50.042;8.968;2023-03-01T08:00:11;9.85;;;8.28;;
30998;SDS011;20549;50.042;8.968;2023-03-01T08:02:37;10.20;;;8.78;;
30998;SDS011;20549;50.042;8.968;2023-03-01T08:05:04;9.85;;;8.88;;
30998;SDS011;20549;50.042;8.968;2023-03-01T08:07:31;9.03;;;8.13;;
30998;SDS011;20549;50.042;8.968;2023-03-01T08:09:57;8.87;;;8.00;;
30998;SDS011;20549;50.042;8.968;2023-03-01T08:12:24;10.70;;;8.90;;
30998;SDS011;20549;50.042;8.968;2023-03-01T08:14:50;9.20;;;8.15;;
30998;SDS011;20549;50.042;8.968;2023-03-01T08:17:17;9.03;;;7.90;;
30998;SDS011;20549;50.042;8.968;2023-03-01T08:19:43;11.10;;;9.50;;
30998;SDS011;20549;50.042;8.968;2023-03-01T08:22:10;11.50;;;8.55;;
30998;SDS011;20549;50.042;8.968;2023-03-01T08:24:37;9.85;;;8.18;;
30998;SDS011;20549;50.042;8.968;2023-03-01T08:27:03;9.65;;;8.30;;
30998;SDS011;20549;50.042;8.968;2023-03-01T08:29:30;10.08;;;9.13;;
30998;SDS011;20549;50.042;8.968;2023-03-01T08:31:56;10.13;;;9.05;;
30998;SDS011;20549;50.042;8.968;2023-03-01T08:34:23;9.85;;;8.68;;
30998;SDS011;20549;50.042;8.968;2023-03-01T08:36:50;8.70;;;7.78;;
30998;SDS011;20549;50.042;8.968;2023-03-01T08:39:16;9.30;;;8.38;;
30998;SDS011;20549;50.042;8.968;2023-03-01T08:41:43;8.83;;;7.92;;
30998;SDS011;20549;50.042;8.968;2023-03-01T08:44:10;9.28;;;7.67;;
30998;SDS011;20549;50.042;8.968;2023-03-01T08:46:37;8.33;;;7.47;;
30998;SDS011;20549;50.042;8.968;2023-03-01T08:49:06;8.35;;;7.55;;
30998;SDS011;20549;50.042;8.968;2023-03-01T08:51:35;8.43;;;7.62;;
30998;SDS011;20549;50.042;8.968;2023-03-01T08:54:05;8.83;;;7.95;;
30998;SDS011;20549;50.042;8.968;2023-03-01T08:56:31;7.85;;;7.15;;
30998;SDS011;20549;50.042;8.968;2023-03-01T08:58:58;8.80;;;7.97;;
30998;SDS011;20549;50.042;8.968;2023-03-01T09:01:24;8.43;;;7.70;;
30998;SDS011;20549;50.042;8.968;2023-03-01T09:03:51;8.45;;;7.65;;
30998;SDS011;20549;50.042;8.968;2023-03-01T09:06:17;10.48;;;9.25;;
30998;SDS011;20549;50.042;8.968;2023-03-01T09:08:45;8.73;;;7.83;;
30998;SDS011;20549;50.042;8.968;2023-03-01T09:11:11;9.78;;;7.83;;
30998;SDS011;20549;50.042;8.968;2023-03-01T09:13:37;8.60;;;7.80;;
30998;SDS011;20549;50.042;8.968;2023-03-01T09:16:04;8.28;;;7.45;;
30998;SDS011;20549;50.042;8.968;2023-03-01T09:18:30;7.40;;;6.67;;
30998;SDS011;20549;50.042;8.968;2023-03-01T09:21:10;7.85;;;7.08;;
30998;SDS011;20549;50.042;8.968;2023-03-01T09:23:36;9.28;;;6.95;;
30998;SDS011;20549;50.042;8.968;2023-03-01T09:26:02;9.80;;;7.85;;
30998;SDS011;20549;50.042;8.968;2023-03-01T09:28:28;8.55;;;7.75;;
30998;SDS011;20549;50.042;8.968;2023-03-01T09:30:58;8.40;;;7.60;;
30998;SDS011;20549;50.042;8.968;2023-03-01T09:33:24;8.23;;;7.53;;
30998;SDS011;20549;50.042;8.968;2023-03-01T09:35:55;8.50;;;7.12;;
30998;SDS011;20549;50.042;8.968;2023-03-01T09:38:23;7.78;;;7.03;;
30998;SDS011;20549;50.042;8.968;2023-03-01T09:40:50;9.35;;;7.45;;
30998;SDS011;20549;50.042;8.968;2023-03-01T09:46:05;8.55;;;7.75;;
30998;SDS011;20549;50.042;8.968;2023-03-01T09:48:33;9.45;;;8.45;;
30998;SDS011;20549;50.042;8.968;2023-03-01T09:50:58;8.60;;;7.22;;
30998;SDS011;20549;50.042;8.968;2023-03-01T09:53:27;8.65;;;7.78;;
30998;SDS011;20549;50.042;8.968;2023-03-01T09:55:53;8.98;;;8.03;;
30998;SDS011;20549;50.042;8.968;2023-03-01T09:58:55;9.40;;;7.28;;
30998;SDS011;20549;50.042;8.968;2023-03-01T10:06:50;12.40;;;8.00;;
30998;SDS011;20549;50.042;8.968;2023-03-01T10:09:15;8.75;;;7.65;;
30998;SDS011;20549;50.042;8.968;2023-03-01T10:11:42;8.95;;;8.03;;
30998;SDS011;20549;50.042;8.968;2023-03-01T10:16:53;10.15;;;9.15;;
30998;SDS011;20549;50.042;8.968;2023-03-01T10:19:27;8.90;;;8.00;;
30998;SDS011;20549;50.042;8.968;2023-03-01T10:22:11;9.80;;;8.60;;
30998;SDS011;20549;50.042;8.968;2023-03-01T10:24:44;9.23;;;8.33;;
30998;SDS011;20549;50.042;8.968;2023-03-01T10:29:54;10.17;;;8.77;;
30998;SDS011;20549;50.042;8.968;2023-03-01T10:32:18;8.60;;;7.80;;
30998;SDS011;20549;50.042;8.968;2023-03-01T10:34:45;8.53;;;7.73;;
30998;SDS011;20549;50.042;8.968;2023-03-01T10:37:13;9.67;;;8.70;;
30998;SDS011;20549;50.042;8.968;2023-03-01T10:39:53;9.17;;;8.27;;
30998;SDS011;20549;50.042;8.968;2023-03-01T10:42:05;11.07;;;8.53;;
30998;SDS011;20549;50.042;8.968;2023-03-01T10:44:47;9.53;;;8.20;;
30998;SDS011;20549;50.042;8.968;2023-03-01T10:47:17;9.23;;;8.23;;
30998;SDS011;20549;50.042;8.968;2023-03-01T10:49:39;10.30;;;8.87;;
30998;SDS011;20549;50.042;8.968;2023-03-01T10:52:17;10.00;;;7.77;;
30998;SDS011;20549;50.042;8.968;2023-03-01T10:54:50;9.83;;;8.43;;
30998;SDS011;20549;50.042;8.968;2023-03-01T10:57:11;9.07;;;8.10;;
30998;SDS011;20549;50.042;8.968;2023-03-01T10:59:38;8.27;;;7.47;;
30998;SDS011;20549;50.042;8.968;2023-03-01T11:02:17;8.80;;;7.90;;
30998;SDS011;20549;50.042;8.968;2023-03-01T11:05:01;10.77;;;8.07;;
30998;SDS011;20549;50.042;8.968;2023-03-01T11:07:27;8.93;;;8.03;;
30998;SDS011;20549;50.042;8.968;2023-03-01T11:09:53;8.70;;;7.10;;
30998;SDS011;20549;50.042;8.968;2023-03-01T11:12:20;8.07;;;7.27;;
30998;SDS011;20549;50.042;8.968;2023-03-01T11:14:47;15.57;;;8.10;;
30998;SDS011;20549;50.042;8.968;2023-03-01T11:17:23;8.03;;;7.23;;
30998;SDS011;20549;50.042;8.968;2023-03-01T11:22:45;9.70;;;7.37;;
30998;SDS011;20549;50.042;8.968;2023-03-01T11:25:08;8.30;;;7.33;;
30998;SDS011;20549;50.042;8.968;2023-03-01T11:27:36;7.40;;;6.73;;
30998;SDS011;20549;50.042;8.968;2023-03-01T11:32:54;9.83;;;7.77;;
30998;SDS011;20549;50.042;8.968;2023-03-01T11:35:20;7.83;;;7.03;;
30998;SDS011;20549;50.042;8.968;2023-03-01T11:37:55;7.77;;;7.00;;
30998;SDS011;20549;50.042;8.968;2023-03-01T11:40:41;8.30;;;7.50;;
30998;SDS011;20549;50.042;8.968;2023-03-01T11:46:03;11.50;;;7.07;;
30998;SDS011;20549;50.042;8.968;2023-03-01T11:50:56;7.90;;;6.80;;
30998;SDS011;20549;50.042;8.968;2023-03-01T11:58:29;7.00;;;6.30;;
30998;SDS011;20549;50.042;8.968;2023-03-01T12:01:05;8.37;;;6.73;;
30998;SDS011;20549;50.042;8.968;2023-03-01T12:08:41;7.03;;;6.13;;
30998;SDS011;20549;50.042;8.968;2023-03-01T12:14:04;8.87;;;7.00;;
30998;SDS011;20549;50.042;8.968;2023-03-01T12:22:24;6.90;;;6.20;;
30998;SDS011;20549;50.042;8.968;2023-03-01T12:27:36;8.07;;;5.87;;
30998;SDS011;20549;50.042;8.968;2023-03-01T12:33:07;7.27;;;6.00;;
30998;SDS011;20549;50.042;8.968;2023-03-01T12:35:51;7.23;;;6.37;;
30998;SDS011;20549;50.042;8.968;2023-03-01T12:38:31;6.27;;;5.67;;
30998;SDS011;20549;50.042;8.968;2023-03-01T12:44:11;6.27;;;5.67;;
30998;SDS011;20549;50.042;8.968;2023-03-01T12:49:44;6.20;;;5.60;;
30998;SDS011;20549;50.042;8.968;2023-03-01T12:52:11;6.40;;;5.60;;
30998;SDS011;20549;50.042;8.968;2023-03-01T12:54:36;8.63;;;6.60;;
30998;SDS011;20549;50.042;8.968;2023-03-01T12:57:06;6.77;;;5.70;;
30998;SDS011;20549;50.042;8.968;2023-03-01T12:59:37;5.37;;;4.87;;
30998;SDS011;20549;50.042;8.968;2023-03-01T13:02:04;5.80;;;5.20;;
30998;SDS011;20549;50.042;8.968;2023-03-01T13:07:22;6.90;;;5.90;;
30998;SDS011;20549;50.042;8.968;2023-03-01T13:12:43;6.90;;;6.20;;
30998;SDS011;20549;50.042;8.968;2023-03-01T13:15:24;6.83;;;6.07;;
30998;SDS011;20549;50.042;8.968;2023-03-01T13:17:51;6.37;;;5.47;;
30998;SDS011;20549;50.042;8.968;2023-03-01T13:20:18;5.90;;;5.40;;
30998;SDS011;20549;50.042;8.968;2023-03-01T13:22:45;5.50;;;5.00;;
30998;SDS011;20549;50.042;8.968;2023-03-01T13:25:17;6.13;;;5.53;;
30998;SDS011;20549;50.042;8.968;2023-03-01T13:27:42;5.87;;;5.27;;
30998;SDS011;20549;50.042;8.968;2023-03-01T13:30:38;8.43;;;6.27;;
30998;SDS011;20549;50.042;8.968;2023-03-01T13:32:57;6.23;;;5.67;;
30998;SDS011;20549;50.042;8.968;2023-03-01T13:37:47;6.73;;;6.03;;
30998;SDS011;20549;50.042;8.968;2023-03-01T13:42:44;6.57;;;5.67;;
30998;SDS011;20549;50.042;8.968;2023-03-01T13:45:17;6.03;;;5.23;;
30998;SDS011;20549;50.042;8.968;2023-03-01T13:47:45;5.87;;;5.27;;
30998;SDS011;20549;50.042;8.968;2023-03-01T13:50:24;6.47;;;5.70;;
30998;SDS011;20549;50.042;8.968;2023-03-01T13:52:57;7.10;;;6.40;;
30998;SDS011;20549;50.042;8.968;2023-03-01T13:58:12;6.50;;;5.80;;
30998;SDS011;20549;50.042;8.968;2023-03-01T14:00:34;5.73;;;5.23;;
30998;SDS011;20549;50.042;8.968;2023-03-01T14:03:09;6.27;;;5.53;;
30998;SDS011;20549;50.042;8.968;2023-03-01T14:05:35;5.93;;;5.17;;
30998;SDS011;20549;50.042;8.968;2023-03-01T14:08:03;7.30;;;6.07;;
30998;SDS011;20549;50.042;8.968;2023-03-01T14:13:23;7.10;;;6.23;;
30998;SDS011;20549;50.042;8.968;2023-03-01T14:15:49;6.07;;;5.57;;
30998;SDS011;20549;50.042;8.968;2023-03-01T14:18:22;7.27;;;6.50;;
30998;SDS011;20549;50.042;8.968;2023-03-01T14:20:47;8.23;;;7.43;;
30998;SDS011;20549;50.042;8.968;2023-03-01T14:23:15;7.97;;;7.17;;
30998;SDS011;20549;50.042;8.968;2023-03-01T14:25:46;9.20;;;7.90;;
30998;SDS011;20549;50.042;8.968;2023-03-01T14:30:49;9.00;;;6.57;;
30998;SDS011;20549;50.042;8.968;2023-03-01T14:33:20;8.70;;;7.80;;
30998;SDS011;20549;50.042;8.968;2023-03-01T14:35:54;8.37;;;7.17;;
30998;SDS011;20549;50.042;8.968;2023-03-01T14:38:23;8.73;;;6.90;;
30998;SDS011;20549;50.042;8.968;2023-03-01T14:40:50;10.13;;;7.70;;
30998;SDS011;20549;50.042;8.968;2023-03-01T14:43:16;9.03;;;7.13;;
30998;SDS011;20549;50.042;8.968;2023-03-01T14:45:42;8.57;;;7.60;;
30998;SDS011;20549;50.042;8.968;2023-03-01T14:48:10;9.00;;;8.13;;
30998;SDS011;20549;50.042;8.968;2023-03-01T14:50:36;8.93;;;7.63;;
30998;SDS011;20549;50.042;8.968;2023-03-01T14:53:03;8.20;;;7.40;;
30998;SDS011;20549;50.042;8.968;2023-03-01T14:55:33;8.90;;;7.43;;
30998;SDS011;20549;50.042;8.968;2023-03-01T14:57:58;9.13;;;7.23;;
30998;SDS011;20549;50.042;8.968;2023-03-01T15:00:25;7.57;;;6.83;;
30998;SDS011;20549;50.042;8.968;2023-03-01T15:02:51;7.77;;;6.63;;
30998;SDS011;20549;50.042;8.968;2023-03-01T15:05:18;9.83;;;7.43;;
30998;SDS011;20549;50.042;8.968;2023-03-01T15:07:44;9.13;;;7.33;;
30998;SDS011;20549;50.042;8.968;2023-03-01T15:13:11;8.37;;;7.47;;
30998;SDS011;20549;50.042;8.968;2023-03-01T15:15:49;8.83;;;7.60;;
30998;SDS011;20549;50.042;8.968;2023-03-01T15:18:16;8.73;;;7.83;;
30998;SDS011;20549;50.042;8.968;2023-03-01T15:20:45;7.80;;;7.00;;
30998;SDS011;20549;50.042;8.968;2023-03-01T15:23:30;8.10;;;7.30;;
30998;SDS011;20549;50.042;8.968;2023-03-01T15:25:46;10.77;;;7.40;;
30998;SDS011;20549;50.042;8.968;2023-03-01T15:28:18;9.20;;;7.53;;
30998;SDS011;20549;50.042;8.968;2023-03-01T15:30:42;7.77;;;6.97;;
30998;SDS011;20549;50.042;8.968;2023-03-01T15:35:50;7.70;;;6.97;;
30998;SDS011;20549;50.042;8.968;2023-03-01T15:38:52;7.60;;;6.80;;
30998;SDS011;20549;50.042;8.968;2023-03-01T15:40:55;7.87;;;7.17;;
30998;SDS011;20549;50.042;8.968;2023-03-01T15:46:03;8.00;;;7.20;;
30998;SDS011;20549;50.042;8.968;2023-03-01T15:48:29;8.50;;;7.43;;
30998;SDS011;20549;50.042;8.968;2023-03-01T15:50:56;7.70;;;6.93;;
30998;SDS011;20549;50.042;8.968;2023-03-01T15:53:22;8.47;;;7.53;;
30998;SDS011;20549;50.042;8.968;2023-03-01T15:55:49;8.97;;;7.00;;
30998;SDS011;20549;50.042;8.968;2023-03-01T15:58:17;9.17;;;7.77;;
30998;SDS011;20549;50.042;8.968;2023-03-01T16:00:44;8.27;;;7.50;;
30998;SDS011;20549;50.042;8.968;2023-03-01T16:03:12;13.20;;;7.93;;
30998;SDS011;20549;50.042;8.968;2023-03-01T16:05:35;9.03;;;8.13;;
30998;SDS011;20549;50.042;8.968;2023-03-01T16:08:02;9.83;;;8.37;;
30998;SDS011;20549;50.042;8.968;2023-03-01T16:10:28;9.30;;;8.30;;
30998;SDS011;20549;50.042;8.968;2023-03-01T16:12:55;10.43;;;7.67;;
30998;SDS011;20549;50.042;8.968;2023-03-01T16:15:23;9.83;;;8.83;;
30998;SDS011;20549;50.042;8.968;2023-03-01T16:17:51;10.93;;;8.70;;
30998;SDS011;20549;50.042;8.968;2023-03-01T16:20:21;9.43;;;8.43;;
30998;SDS011;20549;50.042;8.968;2023-03-01T16:22:47;11.33;;;8.77;;